PWSweather.com
Personal Weather Stations
Station Observations

YeovilGB

Lat: 50.949, Lon: -2.627

Elevation: 70

Station Type: Vantage Pro

http://www.yeovil-weather.me.uk/

Latest ConditionsUpdated 10:20:02 PM GMT Friday, Jul 21, 2017
Currently Today's Max Today's Min Today's Average
Temperature 54.6°F12.6°C 65.3°F18.5°C 54.6°F12.6°C 59.8°F15.4°C
Dew Point 53.5°F11.9°C 58.8°F14.9°C 53.3°F11.8°C 56.6°F13.7°C
Winds Calm Calm 16.1 mph S25.9 kmh S - 7.8 mph 12.6 kmh
Wind Gusts -- 27.6 mph44.4 kmh - -
Humidity 96% 96% 79% 89%
Pressure 29.67 in1004.7 mb 29.79 in1008.8 mb 29.60 in1002.4 mb -
Precipitation - 0.57 in14.5 mm - -
Hour Temp Dew Point Humidity Winds Wind Gusts Pressure Precip Precip Rate Daily Precip Total
10:20 PM 54.6°F12.6°C 53.5°F11.9°C 96% Calm Calm -- 29.67 in1004.7 mb - 0.00 in0.0 mm 0.57 in14.5 mm
10:10 PM 54.6°F12.6°C 53.5°F11.9°C 96% Calm Calm 1.2 mph1.9 kmh 29.67 in1004.7 mb - 0.00 in0.0 mm 0.57 in14.5 mm
10:00 PM 54.7°F12.6°C 53.3°F11.8°C 95% Calm Calm -- 29.66 in1004.4 mb - 0.00 in0.0 mm 0.57 in14.5 mm
09:50 PM 54.9°F12.7°C 53.5°F11.9°C 95% Calm Calm -- 29.66 in1004.4 mb - 0.00 in0.0 mm 0.57 in14.5 mm
09:40 PM 55.1°F12.8°C 53.7°F12.1°C 95% Calm Calm -- 29.66 in1004.4 mb - 0.00 in0.0 mm 0.57 in14.5 mm
09:30 PM 55.3°F12.9°C 53.9°F12.2°C 95% Calm Calm -- 29.66 in1004.4 mb - 0.00 in0.0 mm 0.57 in14.5 mm
09:20 PM 55.5°F13.1°C 54.1°F12.3°C 95% Calm Calm -- 29.66 in1004.4 mb - 0.00 in0.0 mm 0.57 in14.5 mm
09:10 PM 55.6°F13.1°C 54.2°F12.3°C 95% Calm Calm -- 29.65 in1004.1 mb - 0.00 in0.0 mm 0.57 in14.5 mm
09:00 PM 55.7°F13.2°C 54.3°F12.4°C 95% Calm Calm -- 29.65 in1004.1 mb - 0.00 in0.0 mm 0.57 in14.5 mm
08:50 PM 56.0°F13.3°C 54.6°F12.6°C 95% Calm Calm -- 29.65 in1004.1 mb - 0.00 in0.0 mm 0.57 in14.5 mm
08:40 PM 56.0°F13.3°C 54.6°F12.6°C 95% Calm Calm -- 29.65 in1004.1 mb - 0.00 in0.0 mm 0.57 in14.5 mm
08:20 PM 56.3°F13.5°C 54.9°F12.7°C 95% Calm Calm -- 29.64 in1003.7 mb - 0.00 in0.0 mm 0.57 in14.5 mm
08:10 PM 56.3°F13.5°C 54.9°F12.7°C 95% Calm Calm 1.2 mph1.9 kmh 29.64 in1003.7 mb - 0.00 in0.0 mm 0.57 in14.5 mm
08:00 PM 56.4°F13.6°C 55.0°F12.8°C 95% Calm Calm -- 29.64 in1003.7 mb - 0.00 in0.0 mm 0.57 in14.5 mm
07:50 PM 56.4°F13.6°C 55.0°F12.8°C 95% Calm Calm -- 29.64 in1003.7 mb - 0.00 in0.0 mm 0.57 in14.5 mm
07:40 PM 56.5°F13.6°C 55.1°F12.8°C 95% Calm Calm -- 29.64 in1003.7 mb - 0.00 in0.0 mm 0.57 in14.5 mm
07:30 PM 56.7°F13.7°C 55.3°F12.9°C 95% Calm Calm -- 29.64 in1003.7 mb - 0.00 in0.0 mm 0.57 in14.5 mm
07:20 PM 56.8°F13.8°C 55.4°F13.0°C 95% Calm Calm -- 29.64 in1003.7 mb - 0.00 in0.0 mm 0.57 in14.5 mm
07:10 PM 57.0°F13.9°C 55.5°F13.1°C 95% 1.2 mph SSW1.9 kmh SSW 3.5 mph5.6 kmh 29.63 in1003.4 mb - 0.00 in0.0 mm 0.57 in14.5 mm
07:00 PM 57.1°F13.9°C 55.7°F13.2°C 95% Calm Calm -- 29.62 in1003.0 mb - 0.00 in0.0 mm 0.57 in14.5 mm
06:50 PM 57.4°F14.1°C 56.0°F13.3°C 95% 1.2 mph SSW1.9 kmh SSW 3.5 mph5.6 kmh 29.62 in1003.0 mb - 0.00 in0.0 mm 0.57 in14.5 mm
06:40 PM 57.9°F14.4°C 56.5°F13.6°C 95% 4.6 mph SSW7.4 kmh SSW 6.9 mph11.1 kmh 29.62 in1003.0 mb - 0.00 in0.0 mm 0.57 in14.5 mm
06:30 PM 58.3°F14.6°C 56.9°F13.8°C 95% 2.3 mph SW3.7 kmh SW 8.1 mph13.0 kmh 29.62 in1003.0 mb - 0.00 in0.0 mm 0.57 in14.5 mm
06:20 PM 58.4°F14.7°C 57.3°F14.1°C 96% 2.3 mph S3.7 kmh S 10.4 mph16.7 kmh 29.61 in1002.7 mb - 0.01 in0.3 mm 0.57 in14.5 mm
06:10 PM 58.4°F14.7°C 57.0°F13.9°C 95% Calm Calm -- 29.61 in1002.7 mb - 0.00 in0.0 mm 0.56 in14.2 mm
06:00 PM 58.4°F14.7°C 56.9°F13.8°C 95% 2.3 mph S3.7 kmh S 6.9 mph11.1 kmh 29.62 in1003.0 mb - 0.00 in0.0 mm 0.56 in14.2 mm
05:50 PM 58.3°F14.6°C 56.9°F13.8°C 95% 1.2 mph SSW1.9 kmh SSW 8.1 mph13.0 kmh 29.61 in1002.7 mb - 0.00 in0.0 mm 0.56 in14.2 mm
05:40 PM 58.4°F14.7°C 57.0°F13.9°C 95% 3.5 mph SSW5.6 kmh SSW 10.4 mph16.7 kmh 29.60 in1002.4 mb - 0.01 in0.3 mm 0.56 in14.2 mm
05:30 PM 58.3°F14.6°C 56.9°F13.8°C 95% 1.2 mph S1.9 kmh S 8.1 mph13.0 kmh 29.60 in1002.4 mb - 0.02 in0.5 mm 0.56 in14.2 mm
05:20 PM 58.5°F14.7°C 57.1°F13.9°C 95% 3.5 mph S5.6 kmh S 11.5 mph18.5 kmh 29.61 in1002.7 mb - 0.02 in0.5 mm 0.54 in13.7 mm
05:10 PM 58.5°F14.7°C 57.1°F13.9°C 95% 4.6 mph S7.4 kmh S 8.1 mph13.0 kmh 29.60 in1002.4 mb - 0.02 in0.5 mm 0.52 in13.2 mm
05:00 PM 58.6°F14.8°C 57.2°F14.0°C 95% 4.6 mph S7.4 kmh S 11.5 mph18.5 kmh 29.61 in1002.7 mb - 0.03 in0.8 mm 0.50 in12.7 mm
04:50 PM 58.1°F14.5°C 56.7°F13.7°C 95% 11.5 mph S18.5 kmh S 19.6 mph31.5 kmh 29.61 in1002.7 mb - 0.03 in0.8 mm 0.47 in11.9 mm
04:40 PM 57.7°F14.3°C 55.7°F13.2°C 93% 5.8 mph SSW9.3 kmh SSW 12.7 mph20.4 kmh 29.61 in1002.7 mb - 0.06 in1.5 mm 0.45 in11.4 mm
04:30 PM 58.4°F14.7°C 56.4°F13.6°C 93% Calm Calm -- 29.61 in1002.7 mb - 0.03 in0.8 mm 0.40 in10.2 mm
04:20 PM 59.5°F15.3°C 57.5°F14.2°C 93% 4.6 mph SW7.4 kmh SW 6.9 mph11.1 kmh 29.61 in1002.7 mb - 0.04 in1.0 mm 0.37 in9.4 mm
04:10 PM 59.9°F15.5°C 58.2°F14.6°C 94% 8.1 mph S13.0 kmh S 11.5 mph18.5 kmh 29.61 in1002.7 mb - 0.06 in1.5 mm 0.34 in8.6 mm
04:00 PM 60.2°F15.7°C 58.4°F14.7°C 94% 12.7 mph S20.4 kmh S 18.4 mph29.6 kmh 29.61 in1002.7 mb - 0.03 in0.8 mm 0.29 in7.4 mm
03:50 PM 60.2°F15.7°C 58.4°F14.7°C 94% 10.4 mph S16.7 kmh S 15.0 mph24.1 kmh 29.61 in1002.7 mb - 0.03 in0.8 mm 0.26 in6.6 mm
03:40 PM 60.0°F15.6°C 58.3°F14.6°C 94% 8.1 mph S13.0 kmh S 16.1 mph25.9 kmh 29.61 in1002.7 mb - 0.03 in0.8 mm 0.24 in6.1 mm
03:30 PM 60.1°F15.6°C 58.1°F14.5°C 93% 4.6 mph SSE7.4 kmh SSE 13.8 mph22.2 kmh 29.62 in1003.0 mb - 0.04 in1.0 mm 0.21 in5.3 mm
03:20 PM 60.3°F15.7°C 58.3°F14.6°C 93% 10.4 mph S16.7 kmh S 18.4 mph29.6 kmh 29.62 in1003.0 mb - 0.02 in0.5 mm 0.17 in4.3 mm
03:10 PM 60.7°F15.9°C 58.7°F14.8°C 93% 16.1 mph S25.9 kmh S 26.5 mph42.6 kmh 29.63 in1003.4 mb - 0.02 in0.5 mm 0.15 in3.8 mm
03:00 PM 60.6°F15.9°C 58.6°F14.8°C 93% 5.8 mph S9.3 kmh S 12.7 mph20.4 kmh 29.63 in1003.4 mb - 0.01 in0.3 mm 0.13 in3.3 mm
02:50 PM 60.7°F15.9°C 58.4°F14.7°C 92% 6.9 mph S11.1 kmh S 13.8 mph22.2 kmh 29.63 in1003.4 mb - 0.02 in0.5 mm 0.13 in3.3 mm
02:40 PM 60.8°F16.0°C 58.5°F14.7°C 92% 10.4 mph SSE16.7 kmh SSE 21.9 mph35.2 kmh 29.63 in1003.4 mb - 0.02 in0.5 mm 0.10 in2.5 mm
02:30 PM 60.9°F16.1°C 58.5°F14.7°C 92% 12.7 mph S20.4 kmh S 23.0 mph37.0 kmh 29.63 in1003.4 mb - 0.01 in0.3 mm 0.09 in2.3 mm
02:20 PM 61.2°F16.2°C 58.8°F14.9°C 92% 10.4 mph SE16.7 kmh SE 16.1 mph25.9 kmh 29.64 in1003.7 mb - 0.02 in0.5 mm 0.09 in2.3 mm
02:10 PM 61.4°F16.3°C 58.7°F14.8°C 91% 6.9 mph SSE11.1 kmh SSE 15.0 mph24.1 kmh 29.64 in1003.7 mb - 0.02 in0.5 mm 0.08 in2.0 mm
02:00 PM 61.6°F16.4°C 58.6°F14.8°C 90% 10.4 mph SSE16.7 kmh SSE 11.5 mph18.5 kmh 29.64 in1003.7 mb - 0.01 in0.3 mm 0.06 in1.5 mm
01:50 PM 61.6°F16.4°C 58.7°F14.8°C 90% 11.5 mph SSE18.5 kmh SSE 18.4 mph29.6 kmh 29.64 in1003.7 mb - 0.00 in0.0 mm 0.06 in1.5 mm
01:40 PM 61.5°F16.4°C 58.5°F14.7°C 90% 10.4 mph SSE16.7 kmh SSE 19.6 mph31.5 kmh 29.64 in1003.7 mb - 0.01 in0.3 mm 0.06 in1.5 mm
01:30 PM 61.6°F16.4°C 58.3°F14.6°C 89% 9.2 mph SSE14.8 kmh SSE 13.8 mph22.2 kmh 29.64 in1003.7 mb - 0.01 in0.3 mm 0.06 in1.5 mm
01:20 PM 61.7°F16.5°C 58.4°F14.7°C 89% 8.1 mph SE13.0 kmh SE 26.5 mph42.6 kmh 29.64 in1003.7 mb - 0.00 in0.0 mm 0.05 in1.3 mm
01:10 PM 61.7°F16.5°C 58.4°F14.7°C 89% 16.1 mph S25.9 kmh S 24.2 mph38.9 kmh 29.65 in1004.1 mb - 0.01 in0.3 mm 0.05 in1.3 mm
01:00 PM 61.9°F16.6°C 58.6°F14.8°C 89% 8.1 mph SSE13.0 kmh SSE 16.1 mph25.9 kmh 29.65 in1004.1 mb - 0.01 in0.3 mm 0.04 in1.0 mm
12:50 PM 62.3°F16.8°C 58.4°F14.7°C 87% 10.4 mph SSE16.7 kmh SSE 16.1 mph25.9 kmh 29.66 in1004.4 mb - 0.01 in0.3 mm 0.03 in0.8 mm
12:40 PM 62.5°F16.9°C 57.9°F14.4°C 85% 11.5 mph SE18.5 kmh SE 25.3 mph40.7 kmh 29.66 in1004.4 mb - 0.00 in0.0 mm 0.02 in0.5 mm
12:30 PM 63.0°F17.2°C 58.4°F14.7°C 85% 12.7 mph SSE20.4 kmh SSE 20.7 mph33.3 kmh 29.66 in1004.4 mb - 0.00 in0.0 mm 0.02 in0.5 mm
12:20 PM 63.6°F17.6°C 58.0°F14.4°C 82% 13.8 mph SE22.2 kmh SE 21.9 mph35.2 kmh 29.66 in1004.4 mb - 0.01 in0.3 mm 0.02 in0.5 mm
12:10 PM 64.6°F18.1°C 58.0°F14.4°C 79% 13.8 mph S22.2 kmh S 18.4 mph29.6 kmh 29.67 in1004.7 mb - 0.00 in0.0 mm 0.02 in0.5 mm
12:00 PM 65.3°F18.5°C 58.6°F14.8°C 79% 12.7 mph SSE20.4 kmh SSE 24.2 mph38.9 kmh 29.67 in1004.7 mb - 0.00 in0.0 mm 0.02 in0.5 mm
11:50 AM 64.5°F18.1°C 58.5°F14.7°C 81% 9.2 mph SSE14.8 kmh SSE 12.7 mph20.4 kmh 29.67 in1004.7 mb - 0.00 in0.0 mm 0.02 in0.5 mm
11:40 AM 63.7°F17.6°C 58.1°F14.5°C 82% 10.4 mph SSE16.7 kmh SSE 20.7 mph33.3 kmh 29.67 in1004.7 mb - 0.00 in0.0 mm 0.02 in0.5 mm
11:30 AM 63.4°F17.4°C 57.8°F14.3°C 82% 10.4 mph S16.7 kmh S 19.6 mph31.5 kmh 29.68 in1005.1 mb - 0.00 in0.0 mm 0.02 in0.5 mm
11:20 AM 63.5°F17.5°C 57.9°F14.4°C 82% 9.2 mph S14.8 kmh S 13.8 mph22.2 kmh 29.68 in1005.1 mb - 0.00 in0.0 mm 0.02 in0.5 mm
11:10 AM 63.4°F17.4°C 57.8°F14.3°C 82% 12.7 mph S20.4 kmh S 18.4 mph29.6 kmh 29.68 in1005.1 mb - 0.00 in0.0 mm 0.02 in0.5 mm
11:00 AM 63.5°F17.5°C 57.9°F14.4°C 82% 10.4 mph S16.7 kmh S 19.6 mph31.5 kmh 29.68 in1005.1 mb - 0.00 in0.0 mm 0.02 in0.5 mm
10:50 AM 63.2°F17.3°C 57.9°F14.4°C 83% 15.0 mph SSE24.1 kmh SSE 25.3 mph40.7 kmh 29.68 in1005.1 mb - 0.00 in0.0 mm 0.02 in0.5 mm
10:40 AM 63.0°F17.2°C 58.1°F14.5°C 84% 11.5 mph S18.5 kmh S 15.0 mph24.1 kmh 29.68 in1005.1 mb - 0.00 in0.0 mm 0.02 in0.5 mm
10:30 AM 62.9°F17.2°C 58.0°F14.4°C 84% 10.4 mph S16.7 kmh S 23.0 mph37.0 kmh 29.68 in1005.1 mb - 0.00 in0.0 mm 0.02 in0.5 mm
10:20 AM 62.5°F16.9°C 58.2°F14.6°C 86% 9.2 mph SSE14.8 kmh SSE 16.1 mph25.9 kmh 29.68 in1005.1 mb - 0.00 in0.0 mm 0.02 in0.5 mm
10:10 AM 62.0°F16.7°C 58.1°F14.5°C 87% 10.4 mph SE16.7 kmh SE 24.2 mph38.9 kmh 29.68 in1005.1 mb - 0.00 in0.0 mm 0.02 in0.5 mm
10:00 AM 61.8°F16.6°C 57.9°F14.4°C 87% 10.4 mph S16.7 kmh S 23.0 mph37.0 kmh 29.68 in1005.1 mb - 0.00 in0.0 mm 0.02 in0.5 mm
09:50 AM 61.8°F16.6°C 57.9°F14.4°C 87% 8.1 mph S13.0 kmh S 19.6 mph31.5 kmh 29.68 in1005.1 mb - 0.00 in0.0 mm 0.02 in0.5 mm
09:40 AM 61.4°F16.3°C 57.8°F14.3°C 88% 13.8 mph SSE22.2 kmh SSE 25.3 mph40.7 kmh 29.68 in1005.1 mb - 0.00 in0.0 mm 0.02 in0.5 mm
09:30 AM 61.1°F16.2°C 57.5°F14.2°C 88% 16.1 mph S25.9 kmh S 27.6 mph44.4 kmh 29.69 in1005.4 mb - 0.00 in0.0 mm 0.02 in0.5 mm
09:20 AM 61.0°F16.1°C 57.7°F14.3°C 89% 11.5 mph SE18.5 kmh SE 19.6 mph31.5 kmh 29.69 in1005.4 mb - 0.00 in0.0 mm 0.02 in0.5 mm
09:10 AM 61.0°F16.1°C 57.7°F14.3°C 89% 12.7 mph S20.4 kmh S 18.4 mph29.6 kmh 29.68 in1005.1 mb - 0.00 in0.0 mm 0.02 in0.5 mm
09:00 AM 60.7°F15.9°C 58.1°F14.5°C 91% 11.5 mph S18.5 kmh S 18.4 mph29.6 kmh 29.69 in1005.4 mb - 0.00 in0.0 mm 0.02 in0.5 mm
08:50 AM 60.1°F15.6°C 57.8°F14.3°C 92% 15.0 mph S24.1 kmh S 24.2 mph38.9 kmh 29.69 in1005.4 mb - 0.00 in0.0 mm 0.02 in0.5 mm
08:40 AM 59.6°F15.3°C 57.3°F14.1°C 92% 9.2 mph SSE14.8 kmh SSE 18.4 mph29.6 kmh 29.69 in1005.4 mb - 0.00 in0.0 mm 0.02 in0.5 mm
08:30 AM 59.4°F15.2°C 57.4°F14.1°C 93% 8.1 mph S13.0 kmh S 13.8 mph22.2 kmh 29.69 in1005.4 mb - 0.00 in0.0 mm 0.02 in0.5 mm
08:20 AM 59.4°F15.2°C 57.4°F14.1°C 93% 10.4 mph S16.7 kmh S 18.4 mph29.6 kmh 29.70 in1005.8 mb - 0.00 in0.0 mm 0.02 in0.5 mm
08:10 AM 59.7°F15.4°C 57.7°F14.3°C 93% 12.7 mph S20.4 kmh S 20.7 mph33.3 kmh 29.70 in1005.8 mb - 0.01 in0.3 mm 0.02 in0.5 mm
08:00 AM 59.9°F15.5°C 57.6°F14.2°C 92% 8.1 mph S13.0 kmh S 18.4 mph29.6 kmh 29.70 in1005.8 mb - 0.00 in0.0 mm 0.01 in0.3 mm
07:50 AM 60.2°F15.7°C 57.3°F14.1°C 90% 8.1 mph S13.0 kmh S 18.4 mph29.6 kmh 29.70 in1005.8 mb - 0.01 in0.3 mm 0.01 in0.3 mm
07:30 AM 60.6°F15.9°C 56.7°F13.7°C 87% 12.7 mph S20.4 kmh S 19.6 mph31.5 kmh 29.70 in1005.8 mb - 0.00 in0.0 mm 0.00 in0.0 mm
07:20 AM 60.5°F15.8°C 56.9°F13.8°C 88% 11.5 mph S18.5 kmh S 19.6 mph31.5 kmh 29.70 in1005.8 mb - 0.00 in0.0 mm 0.00 in0.0 mm
07:10 AM 60.3°F15.7°C 56.8°F13.8°C 88% 13.8 mph S22.2 kmh S 21.9 mph35.2 kmh 29.71 in1006.1 mb - 0.00 in0.0 mm 0.00 in0.0 mm
07:00 AM 60.2°F15.7°C 56.6°F13.7°C 88% 11.5 mph S18.5 kmh S 19.6 mph31.5 kmh 29.71 in1006.1 mb - 0.00 in0.0 mm 0.00 in0.0 mm
06:50 AM 60.2°F15.7°C 56.6°F13.7°C 88% 6.9 mph SSE11.1 kmh SSE 12.7 mph20.4 kmh 29.71 in1006.1 mb - 0.00 in0.0 mm 0.00 in0.0 mm
06:40 AM 60.2°F15.7°C 56.6°F13.7°C 88% 10.4 mph SSE16.7 kmh SSE 19.6 mph31.5 kmh 29.71 in1006.1 mb - 0.00 in0.0 mm 0.00 in0.0 mm
06:30 AM 60.1°F15.6°C 56.5°F13.6°C 88% 9.2 mph S14.8 kmh S 21.9 mph35.2 kmh 29.71 in1006.1 mb - 0.00 in0.0 mm 0.00 in0.0 mm
06:20 AM 60.1°F15.6°C 56.5°F13.6°C 88% 9.2 mph S14.8 kmh S 15.0 mph24.1 kmh 29.71 in1006.1 mb - 0.00 in0.0 mm 0.00 in0.0 mm
06:10 AM 60.2°F15.7°C 56.9°F13.8°C 89% 10.4 mph S16.7 kmh S 16.1 mph25.9 kmh 29.71 in1006.1 mb - 0.00 in0.0 mm 0.00 in0.0 mm
06:00 AM 60.2°F15.7°C 56.6°F13.7°C 88% 6.9 mph S11.1 kmh S 12.7 mph20.4 kmh 29.71 in1006.1 mb - 0.00 in0.0 mm 0.00 in0.0 mm
05:50 AM 60.2°F15.7°C 56.7°F13.7°C 88% 6.9 mph S11.1 kmh S 11.5 mph18.5 kmh 29.71 in1006.1 mb - 0.00 in0.0 mm 0.00 in0.0 mm
05:40 AM 60.3°F15.7°C 56.4°F13.6°C 87% 9.2 mph S14.8 kmh S 12.7 mph20.4 kmh 29.71 in1006.1 mb - 0.00 in0.0 mm 0.00 in0.0 mm
05:30 AM 60.3°F15.7°C 56.4°F13.6°C 87% 10.4 mph S16.7 kmh S 19.6 mph31.5 kmh 29.71 in1006.1 mb - 0.00 in0.0 mm 0.00 in0.0 mm
05:20 AM 60.3°F15.7°C 56.4°F13.6°C 87% 12.7 mph S20.4 kmh S 19.6 mph31.5 kmh 29.71 in1006.1 mb - 0.00 in0.0 mm 0.00 in0.0 mm
05:10 AM 60.1°F15.6°C 56.2°F13.4°C 87% 10.4 mph SSW16.7 kmh SSW 20.7 mph33.3 kmh 29.72 in1006.4 mb - 0.00 in0.0 mm 0.00 in0.0 mm
05:00 AM 60.1°F15.6°C 56.2°F13.4°C 87% 9.2 mph S14.8 kmh S 16.1 mph25.9 kmh 29.71 in1006.1 mb - 0.00 in0.0 mm 0.00 in0.0 mm
04:50 AM 60.0°F15.6°C 56.1°F13.4°C 87% 11.5 mph S18.5 kmh S 20.7 mph33.3 kmh 29.72 in1006.4 mb - 0.00 in0.0 mm 0.00 in0.0 mm
04:40 AM 60.0°F15.6°C 56.1°F13.4°C 87% 11.5 mph S18.5 kmh S 23.0 mph37.0 kmh 29.72 in1006.4 mb - 0.00 in0.0 mm 0.00 in0.0 mm
04:30 AM 59.9°F15.5°C 56.0°F13.3°C 87% 11.5 mph S18.5 kmh S 18.4 mph29.6 kmh 29.72 in1006.4 mb - 0.00 in0.0 mm 0.00 in0.0 mm
04:20 AM 59.8°F15.4°C 56.0°F13.3°C 87% 12.7 mph S20.4 kmh S 18.4 mph29.6 kmh 29.73 in1006.8 mb - 0.00 in0.0 mm 0.00 in0.0 mm
04:10 AM 59.8°F15.4°C 55.9°F13.3°C 87% 8.1 mph S13.0 kmh S 12.7 mph20.4 kmh 29.73 in1006.8 mb - 0.00 in0.0 mm 0.00 in0.0 mm
04:00 AM 59.7°F15.4°C 55.8°F13.2°C 87% 10.4 mph S16.7 kmh S 19.6 mph31.5 kmh 29.73 in1006.8 mb - 0.00 in0.0 mm 0.00 in0.0 mm
03:50 AM 59.7°F15.4°C 55.8°F13.2°C 87% 12.7 mph S20.4 kmh S 20.7 mph33.3 kmh 29.73 in1006.8 mb - 0.00 in0.0 mm 0.00 in0.0 mm
03:40 AM 59.9°F15.5°C 56.0°F13.3°C 87% 9.2 mph S14.8 kmh S 13.8 mph22.2 kmh 29.73 in1006.8 mb - 0.00 in0.0 mm 0.00 in0.0 mm
03:30 AM 59.9°F15.5°C 55.7°F13.2°C 86% 10.4 mph S16.7 kmh S 13.8 mph22.2 kmh 29.73 in1006.8 mb - 0.00 in0.0 mm 0.00 in0.0 mm
03:20 AM 59.9°F15.5°C 55.7°F13.2°C 86% 8.1 mph S13.0 kmh S 12.7 mph20.4 kmh 29.73 in1006.8 mb - 0.00 in0.0 mm 0.00 in0.0 mm
03:10 AM 59.8°F15.4°C 55.6°F13.1°C 86% 13.8 mph S22.2 kmh S 19.6 mph31.5 kmh 29.74 in1007.1 mb - 0.00 in0.0 mm 0.00 in0.0 mm
03:00 AM 59.9°F15.5°C 55.4°F13.0°C 85% 12.7 mph S20.4 kmh S 19.6 mph31.5 kmh 29.74 in1007.1 mb - 0.00 in0.0 mm 0.00 in0.0 mm
02:50 AM 59.8°F15.4°C 55.3°F12.9°C 85% 10.4 mph S16.7 kmh S 15.0 mph24.1 kmh 29.75 in1007.5 mb - 0.00 in0.0 mm 0.00 in0.0 mm
02:40 AM 59.8°F15.4°C 55.3°F12.9°C 85% 10.4 mph S16.7 kmh S 15.0 mph24.1 kmh 29.75 in1007.5 mb - 0.00 in0.0 mm 0.00 in0.0 mm
02:30 AM 59.8°F15.4°C 55.3°F12.9°C 85% 5.8 mph SSW9.3 kmh SSW 10.4 mph16.7 kmh 29.75 in1007.5 mb - 0.00 in0.0 mm 0.00 in0.0 mm
02:20 AM 59.8°F15.4°C 55.3°F12.9°C 85% 9.2 mph S14.8 kmh S 19.6 mph31.5 kmh 29.75 in1007.5 mb - 0.00 in0.0 mm 0.00 in0.0 mm
02:10 AM 59.8°F15.4°C 55.0°F12.8°C 84% 9.2 mph S14.8 kmh S 15.0 mph24.1 kmh 29.76 in1007.8 mb - 0.00 in0.0 mm 0.00 in0.0 mm
02:00 AM 59.9°F15.5°C 55.0°F12.8°C 84% 10.4 mph S16.7 kmh S 18.4 mph29.6 kmh 29.76 in1007.8 mb - 0.00 in0.0 mm 0.00 in0.0 mm
01:50 AM 59.9°F15.5°C 55.1°F12.8°C 84% 9.2 mph S14.8 kmh S 19.6 mph31.5 kmh 29.76 in1007.8 mb - 0.00 in0.0 mm 0.00 in0.0 mm
01:40 AM 59.9°F15.5°C 55.1°F12.8°C 84% 8.1 mph S13.0 kmh S 12.7 mph20.4 kmh 29.77 in1008.1 mb - 0.00 in0.0 mm 0.00 in0.0 mm
01:30 AM 60.0°F15.6°C 55.2°F12.9°C 84% 6.9 mph S11.1 kmh S 11.5 mph18.5 kmh 29.77 in1008.1 mb - 0.00 in0.0 mm 0.00 in0.0 mm
01:20 AM 60.0°F15.6°C 55.5°F13.1°C 85% 3.5 mph SSW5.6 kmh SSW 11.5 mph18.5 kmh 29.77 in1008.1 mb - 0.00 in0.0 mm 0.00 in0.0 mm
01:10 AM 60.0°F15.6°C 55.2°F12.9°C 84% 6.9 mph S11.1 kmh S 13.8 mph22.2 kmh 29.77 in1008.1 mb - 0.00 in0.0 mm 0.00 in0.0 mm
01:00 AM 60.0°F15.6°C 55.2°F12.9°C 84% 5.8 mph S9.3 kmh S 11.5 mph18.5 kmh 29.77 in1008.1 mb - 0.00 in0.0 mm 0.00 in0.0 mm
12:50 AM 60.0°F15.6°C 55.1°F12.8°C 84% 5.8 mph S9.3 kmh S 8.1 mph13.0 kmh 29.77 in1008.1 mb - 0.00 in0.0 mm 0.00 in0.0 mm
12:40 AM 59.9°F15.5°C 54.7°F12.6°C 83% 6.9 mph SSE11.1 kmh SSE 12.7 mph20.4 kmh 29.78 in1008.5 mb - 0.00 in0.0 mm 0.00 in0.0 mm
12:30 AM 59.9°F15.5°C 54.7°F12.6°C 83% 8.1 mph S13.0 kmh S 16.1 mph25.9 kmh 29.78 in1008.5 mb - 0.00 in0.0 mm 0.00 in0.0 mm
12:20 AM 59.8°F15.4°C 54.6°F12.6°C 83% 10.4 mph S16.7 kmh S 13.8 mph22.2 kmh 29.78 in1008.5 mb - 0.00 in0.0 mm 0.00 in0.0 mm
12:10 AM 59.7°F15.4°C 54.6°F12.6°C 83% 6.9 mph S11.1 kmh S 13.8 mph22.2 kmh 29.78 in1008.5 mb - 0.00 in0.0 mm 0.00 in0.0 mm
12:00 AM 59.7°F15.4°C 54.2°F12.3°C 82% 8.1 mph S13.0 kmh S 15.0 mph24.1 kmh 29.79 in1008.8 mb - 0.00 in0.0 mm 0.00 in0.0 mm